Time;durP1;ratioP1;P1;durP2;ratioP2;P2;SDS_P1;SDS_P2;PMS_P1;PMS_P2;Temp;Humidity;BMP_temperature;BMP_pressure;BME280_temperature;BME280_humidity;BME280_pressure;Samples;Min_cycle;Max_cycle;Signal;HPM_P1;HPM_P2
2021/04/26 00:00:15;;;;;;;18.27;12.07;;;;;;;;;;4922363;29;20028;-84
2021/04/26 00:02:41;;;;;;;20.70;13.68;;;;;;;;;;4922588;29;20031;-83
2021/04/26 00:05:08;;;;;;;18.25;12.05;;;;;;;;;;4921523;29;20044;-82
2021/04/26 00:07:34;;;;;;;20.42;12.85;;;;;;;;;;4922614;29;20032;-84
2021/04/26 00:10:00;;;;;;;20.30;13.25;;;;;;;;;;4922750;29;20032;-84
2021/04/26 00:12:26;;;;;;;19.63;12.52;;;;;;;;;;4922871;29;20441;-85
2021/04/26 00:14:53;;;;;;;20.13;13.57;;;;;;;;;;4922456;29;20083;-85
2021/04/26 00:17:20;;;;;;;20.25;14.00;;;;;;;;;;4921501;29;20032;-84
2021/04/26 00:19:46;;;;;;;22.75;13.82;;;;;;;;;;4922634;29;20028;-85
2021/04/26 00:22:12;;;;;;;24.15;14.45;;;;;;;;;;4921273;29;20052;-86
2021/04/26 00:24:39;;;;;;;26.52;14.50;;;;;;;;;;4922393;29;20103;-86
2021/04/26 00:27:06;;;;;;;23.25;14.57;;;;;;;;;;4922724;29;20415;-86
2021/04/26 00:29:32;;;;;;;22.77;13.80;;;;;;;;;;4922249;29;20328;-87
2021/04/26 00:31:58;;;;;;;22.17;14.07;;;;;;;;;;4921296;29;20060;-87
2021/04/26 00:34:24;;;;;;;18.95;13.68;;;;;;;;;;4922071;29;20096;-86
2021/04/26 00:36:50;;;;;;;18.58;13.95;;;;;;;;;;4922327;29;20056;-86
2021/04/26 00:39:16;;;;;;;19.02;13.45;;;;;;;;;;4922222;29;20036;-86
2021/04/26 00:41:42;;;;;;;22.23;14.38;;;;;;;;;;4903328;29;20064;-86
2021/04/26 00:44:09;;;;;;;20.30;13.73;;;;;;;;;;4903104;29;20060;-87
2021/04/26 00:46:35;;;;;;;19.92;13.85;;;;;;;;;;4903007;29;20049;-87
2021/04/26 00:49:01;;;;;;;21.52;13.85;;;;;;;;;;4902102;29;20029;-88
2021/04/26 00:51:27;;;;;;;19.38;13.93;;;;;;;;;;4902685;29;20024;-82
2021/04/26 00:53:54;;;;;;;24.92;13.90;;;;;;;;;;4901597;29;20317;-82
2021/04/26 00:56:20;;;;;;;21.30;14.45;;;;;;;;;;4902593;29;20024;-83
2021/04/26 00:58:46;;;;;;;22.42;14.63;;;;;;;;;;4902734;29;20076;-83
2021/04/26 01:01:22;;;;;;;21.35;14.05;;;;;;;;;;4902662;29;20020;-84
2021/04/26 01:03:48;;;;;;;19.58;14.07;;;;;;;;;;4902699;29;20428;-84
2021/04/26 01:06:14;;;;;;;20.65;14.32;;;;;;;;;;4901693;29;20033;-84
2021/04/26 01:08:40;;;;;;;22.08;13.98;;;;;;;;;;4902567;29;20403;-84
2021/04/26 01:11:07;;;;;;;23.88;14.23;;;;;;;;;;4902583;29;20111;-84
2021/04/26 01:13:51;;;;;;;20.63;14.23;;;;;;;;;;4901741;29;20048;-84
2021/04/26 01:16:27;;;;;;;18.58;13.68;;;;;;;;;;4901495;29;20036;-83
2021/04/26 01:19:12;;;;;;;20.02;13.52;;;;;;;;;;4902434;29;20439;-83
2021/04/26 01:21:50;;;;;;;22.08;14.43;;;;;;;;;;4902396;29;20044;-84
2021/04/26 01:24:22;;;;;;;20.23;13.73;;;;;;;;;;4904634;29;20384;-84
2021/04/26 01:26:48;;;;;;;21.60;14.70;;;;;;;;;;4921258;29;20112;-84
2021/04/26 01:29:17;;;;;;;26.08;14.85;;;;;;;;;;4921123;29;20036;-84
2021/04/26 01:31:56;;;;;;;19.75;13.40;;;;;;;;;;4921153;29;20506;-84
2021/04/26 01:34:23;;;;;;;21.88;14.30;;;;;;;;;;4921440;29;20039;-83
2021/04/26 01:36:51;;;;;;;20.05;13.40;;;;;;;;;;4921361;29;20028;-84
2021/04/26 01:39:17;;;;;;;20.50;13.23;;;;;;;;;;4920976;29;20051;-82
2021/04/26 01:41:45;;;;;;;22.33;13.60;;;;;;;;;;4921111;29;20028;-83
2021/04/26 01:44:12;;;;;;;18.17;13.60;;;;;;;;;;4921211;29;20076;-83
2021/04/26 01:46:38;;;;;;;20.48;13.73;;;;;;;;;;4904273;29;20024;-85
2021/04/26 01:49:05;;;;;;;16.83;13.00;;;;;;;;;;4921196;29;20059;-85
2021/04/26 01:51:31;;;;;;;18.70;14.02;;;;;;;;;;4924993;29;20055;-85
2021/04/26 01:53:57;;;;;;;17.73;12.55;;;;;;;;;;4908614;29;20036;-84
2021/04/26 01:56:24;;;;;;;19.38;13.90;;;;;;;;;;4924765;29;20032;-84
2021/04/26 01:58:51;;;;;;;18.27;12.68;;;;;;;;;;4924911;29;20096;-84
2021/04/26 02:01:24;;;;;;;19.40;13.13;;;;;;;;;;4924962;29;20031;-84
2021/04/26 02:03:53;;;;;;;17.20;12.68;;;;;;;;;;4924759;29;20024;-83
2021/04/26 02:06:20;;;;;;;18.35;13.43;;;;;;;;;;4941743;29;20035;-84
2021/04/26 02:08:46;;;;;;;23.85;13.60;;;;;;;;;;4927017;29;20027;-83
2021/04/26 02:11:12;;;;;;;20.08;13.63;;;;;;;;;;4943605;29;20019;-83
2021/04/26 02:13:39;;;;;;;17.80;13.50;;;;;;;;;;4943457;29;20415;-85
2021/04/26 02:16:06;;;;;;;21.85;13.38;;;;;;;;;;4943993;29;20035;-84
2021/04/26 02:18:32;;;;;;;18.15;13.35;;;;;;;;;;4927092;29;20036;-84
2021/04/26 02:20:58;;;;;;;15.57;13.15;;;;;;;;;;4943948;29;20118;-84
2021/04/26 02:23:25;;;;;;;18.70;13.20;;;;;;;;;;4943223;29;20082;-85
2021/04/26 02:25:51;;;;;;;20.35;13.13;;;;;;;;;;4943410;29;20031;-84
2021/04/26 02:28:17;;;;;;;20.85;13.40;;;;;;;;;;4927000;29;20102;-86
2021/04/26 02:30:45;;;;;;;19.95;13.77;;;;;;;;;;4943510;29;20053;-84
2021/04/26 02:33:15;;;;;;;21.85;14.55;;;;;;;;;;4943649;29;20047;-86
2021/04/26 02:35:52;;;;;;;15.90;13.10;;;;;;;;;;4943276;29;20027;-85
2021/04/26 02:38:22;;;;;;;22.65;13.55;;;;;;;;;;4943227;29;20035;-85
2021/04/26 02:40:51;;;;;;;20.98;14.68;;;;;;;;;;4926055;29;20039;-86
2021/04/26 02:43:18;;;;;;;21.40;13.55;;;;;;;;;;4943614;29;20111;-85
2021/04/26 02:45:48;;;;;;;19.65;14.75;;;;;;;;;;4943423;29;20031;-84
2021/04/26 02:48:14;;;;;;;24.17;14.98;;;;;;;;;;4925950;29;20032;-86
2021/04/26 02:50:42;;;;;;;19.25;13.55;;;;;;;;;;4943360;29;20032;-85
2021/04/26 02:53:08;;;;;;;19.20;14.30;;;;;;;;;;4943059;29;20032;-85
2021/04/26 02:55:35;;;;;;;22.13;13.93;;;;;;;;;;4942866;29;20075;-86
2021/04/26 02:58:01;;;;;;;19.25;14.32;;;;;;;;;;4925678;29;20078;-86
2021/04/26 03:00:29;;;;;;;21.27;14.68;;;;;;;;;;4942798;29;20417;-85
2021/04/26 03:05:59;;;;;;;18.38;13.23;;;;;;;;;;4943041;29;20209;-84
2021/04/26 03:08:25;;;;;;;17.17;12.52;;;;;;;;;;4943004;29;20050;-85
2021/04/26 03:10:52;;;;;;;19.60;13.45;;;;;;;;;;4943019;29;20111;-85
2021/04/26 03:13:18;;;;;;;18.08;11.95;;;;;;;;;;4942933;29;20106;-85
2021/04/26 03:16:09;;;;;;;19.88;11.52;;;;;;;;;;4942915;29;20028;-85
2021/04/26 03:18:35;;;;;;;19.70;12.68;;;;;;;;;;4925425;29;20034;-85
2021/04/26 03:21:07;;;;;;;16.95;11.55;;;;;;;;;;4925652;29;20055;-83
2021/04/26 03:23:33;;;;;;;16.55;11.38;;;;;;;;;;4942220;29;20091;-83
2021/04/26 03:26:00;;;;;;;20.02;11.20;;;;;;;;;;4942578;29;20035;-83
2021/04/26 03:28:28;;;;;;;20.67;11.10;;;;;;;;;;4925118;29;20088;-83
2021/04/26 03:30:56;;;;;;;17.25;10.15;;;;;;;;;;4942233;29;20030;-86
2021/04/26 03:33:22;;;;;;;13.63;10.55;;;;;;;;;;4942634;29;20028;-83
2021/04/26 03:35:48;;;;;;;17.10;10.80;;;;;;;;;;4942471;29;20038;-83
2021/04/26 03:38:16;;;;;;;15.05;10.85;;;;;;;;;;4942055;29;20023;-85
2021/04/26 03:40:42;;;;;;;14.90;10.52;;;;;;;;;;4942407;29;20020;-84
2021/04/26 03:43:09;;;;;;;15.00;10.18;;;;;;;;;;4941916;29;20026;-85
2021/04/26 03:45:35;;;;;;;16.77;10.02;;;;;;;;;;4942323;29;20031;-84
2021/04/26 03:48:01;;;;;;;14.05;9.23;;;;;;;;;;4925366;29;20027;-85
2021/04/26 03:50:27;;;;;;;17.02;8.88;;;;;;;;;;4941806;29;20042;-84
2021/04/26 03:52:54;;;;;;;12.60;8.85;;;;;;;;;;4941805;29;20032;-84
2021/04/26 03:55:21;;;;;;;13.75;8.57;;;;;;;;;;4940914;29;20114;-82
2021/04/26 03:57:48;;;;;;;14.05;8.88;;;;;;;;;;4907594;29;20052;-84
2021/04/26 04:00:15;;;;;;;15.15;8.90;;;;;;;;;;4937634;29;20415;-85
2021/04/26 04:05:45;;;;;;;13.50;9.07;;;;;;;;;;4933352;29;20035;-82
2021/04/26 04:08:11;;;;;;;32.20;10.25;;;;;;;;;;4923491;29;20055;-83
2021/04/26 04:10:37;;;;;;;15.10;9.25;;;;;;;;;;4941411;29;20028;-84
2021/04/26 04:13:03;;;;;;;14.98;8.75;;;;;;;;;;4941156;29;20031;-84
2021/04/26 04:15:30;;;;;;;12.13;8.45;;;;;;;;;;4941377;29;20034;-84
2021/04/26 04:18:14;;;;;;;12.45;8.30;;;;;;;;;;4941503;29;20042;-84
2021/04/26 04:20:40;;;;;;;12.38;8.05;;;;;;;;;;4924439;29;20028;-83
2021/04/26 04:23:06;;;;;;;13.30;8.27;;;;;;;;;;4940997;29;20135;-83
2021/04/26 04:25:32;;;;;;;13.70;9.10;;;;;;;;;;4941257;29;20145;-84
2021/04/26 04:27:58;;;;;;;16.80;8.95;;;;;;;;;;4941075;29;20149;-84
2021/04/26 04:30:24;;;;;;;13.43;7.80;;;;;;;;;;4941176;29;20031;-84
2021/04/26 04:32:50;;;;;;;15.15;9.43;;;;;;;;;;4941136;29;20028;-84
2021/04/26 04:35:16;;;;;;;14.57;9.02;;;;;;;;;;4924114;29;20044;-86
2021/04/26 04:37:42;;;;;;;18.48;9.10;;;;;;;;;;4924352;29;20034;-85
2021/04/26 04:40:09;;;;;;;14.60;8.50;;;;;;;;;;4924207;29;20019;-84
2021/04/26 04:42:35;;;;;;;11.40;7.80;;;;;;;;;;4941000;29;20024;-85
2021/04/26 04:45:01;;;;;;;10.95;7.10;;;;;;;;;;4924310;29;20534;-85
2021/04/26 04:47:27;;;;;;;12.15;7.78;;;;;;;;;;4940984;29;20055;-85
2021/04/26 04:49:53;;;;;;;14.77;7.70;;;;;;;;;;4941227;29;20047;-85
2021/04/26 04:52:19;;;;;;;15.07;8.00;;;;;;;;;;4941219;29;20055;-85
2021/04/26 04:54:45;;;;;;;15.63;8.63;;;;;;;;;;4940911;29;20032;-85
2021/04/26 04:57:11;;;;;;;12.00;6.95;;;;;;;;;;4940784;29;20058;-85
2021/04/26 04:59:37;;;;;;;10.25;6.82;;;;;;;;;;4940977;29;20027;-85
2021/04/26 05:02:04;;;;;;;10.93;6.53;;;;;;;;;;4940945;29;20016;-85
2021/04/26 05:04:30;;;;;;;13.02;7.00;;;;;;;;;;4923860;29;20038;-85
2021/04/26 05:06:56;;;;;;;11.77;6.43;;;;;;;;;;4940885;29;20094;-86
2021/04/26 05:09:22;;;;;;;12.68;6.55;;;;;;;;;;4940610;29;20027;-85
2021/04/26 05:11:48;;;;;;;7.97;5.78;;;;;;;;;;4940750;29;20040;-85
2021/04/26 05:14:14;;;;;;;10.45;6.50;;;;;;;;;;4940866;29;20151;-85
2021/04/26 05:16:42;;;;;;;11.63;5.47;;;;;;;;;;4923677;29;20485;-86
2021/04/26 05:19:15;;;;;;;10.60;5.40;;;;;;;;;;4939119;29;20107;-86
2021/04/26 05:21:42;;;;;;;10.82;5.35;;;;;;;;;;4940144;29;20059;-86
2021/04/26 05:24:08;;;;;;;8.65;5.82;;;;;;;;;;4923058;29;20487;-86
2021/04/26 05:26:35;;;;;;;10.93;5.78;;;;;;;;;;4923619;29;20032;-86
2021/04/26 05:29:01;;;;;;;9.23;5.40;;;;;;;;;;4923433;29;20024;-85
2021/04/26 05:34:50;;;;;;;9.60;5.93;;;;;;;;;;4921589;29;20031;-85
2021/04/26 05:37:16;;;;;;;12.55;5.95;;;;;;;;;;4921172;29;20037;-85
2021/04/26 05:39:42;;;;;;;10.90;5.93;;;;;;;;;;4921539;29;20028;-85
2021/04/26 05:42:08;;;;;;;13.00;6.35;;;;;;;;;;4921294;29;20036;-86
2021/04/26 05:44:34;;;;;;;8.98;5.35;;;;;;;;;;4921328;29;20111;-86
2021/04/26 05:50:04;;;;;;;9.45;5.95;;;;;;;;;;4937082;29;20075;-83
2021/04/26 05:52:30;;;;;;;12.43;6.82;;;;;;;;;;4923452;29;20035;-85
2021/04/26 05:54:56;;;;;;;18.40;8.63;;;;;;;;;;4940565;29;20042;-85
2021/04/26 05:57:22;;;;;;;18.05;8.82;;;;;;;;;;4940271;29;20407;-86
2021/04/26 05:59:48;;;;;;;16.40;7.07;;;;;;;;;;4923199;29;20031;-79
2021/04/26 06:02:51;;;;;;;23.58;9.95;;;;;;;;;;4939948;29;20048;-85
2021/04/26 06:05:18;;;;;;;12.15;7.22;;;;;;;;;;4939834;29;20051;-85
2021/04/26 06:07:45;;;;;;;18.77;7.30;;;;;;;;;;4940019;29;20035;-87
2021/04/26 06:10:11;;;;;;;12.02;6.75;;;;;;;;;;4940220;29;20303;-84
2021/04/26 06:12:37;;;;;;;12.52;7.28;;;;;;;;;;4923268;29;20078;-85
2021/04/26 06:15:04;;;;;;;12.85;7.15;;;;;;;;;;4940215;29;20039;-85
2021/04/26 06:23:38;;;;;;;34.25;17.92;;;;;;;;;;4939530;29;20054;-84
2021/04/26 06:26:04;;;;;;;40.80;22.48;;;;;;;;;;4923105;29;20031;-84
2021/04/26 06:28:30;;;;;;;24.85;13.57;;;;;;;;;;4939234;29;20027;-82
2021/04/26 06:30:56;;;;;;;15.45;7.40;;;;;;;;;;4939745;29;20029;-83
2021/04/26 06:36:26;;;;;;;30.95;16.83;;;;;;;;;;4941682;29;20034;-83
2021/04/26 06:38:52;;;;;;;20.38;13.68;;;;;;;;;;4943438;29;20024;-84
2021/04/26 06:41:18;;;;;;;8.80;4.72;;;;;;;;;;4925785;29;20060;-83
2021/04/26 06:43:44;;;;;;;14.40;5.65;;;;;;;;;;4943079;29;20023;-83
2021/04/26 06:46:10;;;;;;;7.95;5.00;;;;;;;;;;4943040;29;20035;-84
2021/04/26 06:48:55;;;;;;;16.00;8.20;;;;;;;;;;4943215;29;20032;-83
2021/04/26 06:51:21;;;;;;;14.32;7.97;;;;;;;;;;4942778;29;20032;-83
2021/04/26 06:53:47;;;;;;;9.90;5.50;;;;;;;;;;4926086;29;20035;-84
2021/04/26 06:56:13;;;;;;;6.68;5.28;;;;;;;;;;4926132;29;20441;-83
2021/04/26 06:58:39;;;;;;;8.65;4.80;;;;;;;;;;4925668;29;20035;-84
2021/04/26 07:01:05;;;;;;;7.32;4.50;;;;;;;;;;4925841;29;20427;-84
2021/04/26 07:03:50;;;;;;;7.85;3.90;;;;;;;;;;4942931;29;20412;-84
2021/04/26 07:06:17;;;;;;;6.30;3.60;;;;;;;;;;4942490;29;20027;-84
2021/04/26 07:08:43;;;;;;;6.35;4.35;;;;;;;;;;4942609;29;20407;-84
2021/04/26 07:11:09;;;;;;;6.97;4.28;;;;;;;;;;4942825;29;20037;-84
2021/04/26 07:13:35;;;;;;;8.48;4.07;;;;;;;;;;4942459;29;20031;-84
2021/04/26 07:16:01;;;;;;;6.53;3.85;;;;;;;;;;4942848;29;20028;-84
2021/04/26 07:18:27;;;;;;;6.78;3.45;;;;;;;;;;4942615;29;20032;-83
2021/04/26 07:20:53;;;;;;;5.25;3.83;;;;;;;;;;4925354;29;20059;-84
2021/04/26 07:23:19;;;;;;;12.10;4.30;;;;;;;;;;4942357;29;20088;-84
2021/04/26 07:25:46;;;;;;;6.20;3.75;;;;;;;;;;4942302;29;20122;-84
2021/04/26 07:28:12;;;;;;;7.00;3.55;;;;;;;;;;4942306;29;20415;-83
2021/04/26 07:30:38;;;;;;;6.78;3.85;;;;;;;;;;4942170;29;20055;-84
2021/04/26 07:33:04;;;;;;;6.55;3.40;;;;;;;;;;4942455;29;20032;-84
2021/04/26 07:35:30;;;;;;;8.30;3.85;;;;;;;;;;4942113;29;20441;-83
2021/04/26 07:37:56;;;;;;;12.25;5.15;;;;;;;;;;4942221;29;20094;-83
2021/04/26 07:40:22;;;;;;;9.20;4.97;;;;;;;;;;4942192;29;20035;-83
2021/04/26 07:42:48;;;;;;;6.40;3.53;;;;;;;;;;4941969;29;20118;-83
2021/04/26 07:45:21;;;;;;;11.35;5.90;;;;;;;;;;4927576;29;20032;-83
2021/04/26 07:48:05;;;;;;;;;;;;;;;;;;4922887;29;20032;-84
2021/04/26 07:50:31;;;;;;;13.80;6.65;;;;;;;;;;4906031;29;19978;-84
2021/04/26 07:52:58;;;;;;;21.80;5.13;;;;;;;;;;4938821;29;20040;-83
2021/04/26 07:55:24;;;;;;;7.30;3.72;;;;;;;;;;4925220;29;20028;-83
2021/04/26 07:57:50;;;;;;;14.05;6.30;;;;;;;;;;4930322;29;20044;-87
2021/04/26 08:00:17;;;;;;;15.88;7.30;;;;;;;;;;4922909;29;20022;-83
2021/04/26 08:03:21;;;;;;;6.25;3.78;;;;;;;;;;4923078;29;20032;-83
2021/04/26 08:05:47;;;;;;;17.10;6.85;;;;;;;;;;4922477;29;20095;-83
2021/04/26 08:08:13;;;;;;;16.08;8.43;;;;;;;;;;4922413;29;20040;-83
2021/04/26 08:10:39;;;;;;;12.38;5.95;;;;;;;;;;4922495;29;20032;-83
2021/04/26 08:13:05;;;;;;;7.85;4.10;;;;;;;;;;4922472;29;20336;-83
2021/04/26 08:15:31;;;;;;;9.57;4.80;;;;;;;;;;4922576;29;20036;-83
2021/04/26 08:17:58;;;;;;;12.80;5.72;;;;;;;;;;4905465;29;20036;-83
2021/04/26 08:20:24;;;;;;;13.98;7.43;;;;;;;;;;4905528;29;20031;-83
2021/04/26 08:22:50;;;;;;;9.93;4.38;;;;;;;;;;4922117;29;20127;-82
2021/04/26 08:25:16;;;;;;;10.13;4.60;;;;;;;;;;4922412;29;20063;-83
2021/04/26 08:27:42;;;;;;;6.13;3.67;;;;;;;;;;4922325;29;20028;-83
2021/04/26 08:30:09;;;;;;;9.25;4.82;;;;;;;;;;4905444;29;20343;-83
2021/04/26 08:33:12;;;;;;;11.38;6.15;;;;;;;;;;4922414;29;20378;-84
2021/04/26 08:35:38;;;;;;;11.32;5.68;;;;;;;;;;4921814;29;20024;-83
2021/04/26 08:38:04;;;;;;;12.75;6.35;;;;;;;;;;4905137;29;20028;-83
2021/04/26 08:40:31;;;;;;;17.35;10.95;;;;;;;;;;4905111;29;20028;-82
2021/04/26 08:43:02;;;;;;;14.50;6.22;;;;;;;;;;4921901;29;20408;-83
2021/04/26 08:45:28;;;;;;;7.85;4.03;;;;;;;;;;4921812;29;20051;-83
2021/04/26 08:48:31;;;;;;;10.45;5.10;;;;;;;;;;4904541;29;20055;-83
2021/04/26 08:50:57;;;;;;;6.60;3.92;;;;;;;;;;4921683;29;20079;-83
2021/04/26 08:53:23;;;;;;;9.02;5.20;;;;;;;;;;4921769;29;20043;-83
2021/04/26 08:55:49;;;;;;;7.18;4.22;;;;;;;;;;4905006;29;20024;-83
2021/04/26 08:58:15;;;;;;;11.35;5.13;;;;;;;;;;4921637;29;20039;-83
2021/04/26 09:00:42;;;;;;;9.07;5.07;;;;;;;;;;4921816;29;20031;-84
2021/04/26 09:03:08;;;;;;;18.98;7.40;;;;;;;;;;4904574;29;20036;-84
2021/04/26 09:05:36;;;;;;;13.15;5.90;;;;;;;;;;4921836;29;20316;-84
2021/04/26 09:08:03;;;;;;;7.88;4.88;;;;;;;;;;4921684;29;20028;-84
2021/04/26 09:10:37;;;;;;;9.30;4.40;;;;;;;;;;4921496;29;20096;-84
2021/04/26 09:13:22;;;;;;;9.30;5.40;;;;;;;;;;4921554;29;20029;-84
2021/04/26 09:16:12;;;;;;;12.95;4.88;;;;;;;;;;4921475;29;20438;-84
2021/04/26 09:18:44;;;;;;;6.88;4.57;;;;;;;;;;4912042;29;20040;-84
2021/04/26 09:21:18;;;;;;;7.35;4.57;;;;;;;;;;4921313;29;20024;-84
2021/04/26 09:23:44;;;;;;;10.82;5.63;;;;;;;;;;4921073;29;20048;-84
2021/04/26 09:26:23;;;;;;;7.03;4.57;;;;;;;;;;4921215;29;20071;-84
2021/04/26 09:29:09;;;;;;;9.18;4.43;;;;;;;;;;4921323;29;20050;-84
2021/04/26 09:31:35;;;;;;;8.38;4.63;;;;;;;;;;4904932;29;20044;-84
2021/04/26 09:37:23;;;;;;;7.32;5.07;;;;;;;;;;4921701;29;20150;-84
2021/04/26 09:39:55;;;;;;;7.95;3.72;;;;;;;;;;4927164;29;20028;-84
2021/04/26 09:42:38;;;;;;;6.78;3.97;;;;;;;;;;4904473;29;20032;-84
2021/04/26 09:45:28;;;;;;;6.50;3.97;;;;;;;;;;4921327;29;20107;-84
2021/04/26 09:48:12;;;;;;;8.43;4.20;;;;;;;;;;4847741;29;20072;-84
2021/04/26 09:50:51;;;;;;;9.52;4.70;;;;;;;;;;4863358;29;20033;-84
2021/04/26 09:53:17;;;;;;;10.40;4.70;;;;;;;;;;4847666;29;20049;-84
2021/04/26 09:55:43;;;;;;;10.43;4.93;;;;;;;;;;4863509;29;20049;-84
2021/04/26 09:58:10;;;;;;;12.55;4.95;;;;;;;;;;4863173;29;20142;-84
2021/04/26 10:00:36;;;;;;;22.45;5.18;;;;;;;;;;4847959;29;20029;-84
2021/04/26 10:03:04;;;;;;;24.73;5.30;;;;;;;;;;4847741;29;20022;-84
2021/04/26 10:05:30;;;;;;;21.73;12.63;;;;;;;;;;4863198;29;20044;-84
2021/04/26 10:07:56;;;;;;;10.82;4.30;;;;;;;;;;4863142;29;20327;-84
2021/04/26 10:10:22;;;;;;;13.77;5.22;;;;;;;;;;4863312;29;20029;-83
2021/04/26 10:12:48;;;;;;;9.43;4.43;;;;;;;;;;4851410;29;20041;-84
2021/04/26 10:15:15;;;;;;;15.23;5.72;;;;;;;;;;4850905;29;20141;-84
2021/04/26 10:17:43;;;;;;;17.13;8.05;;;;;;;;;;4866585;29;20088;-83
2021/04/26 10:20:09;;;;;;;14.98;4.60;;;;;;;;;;4851264;29;20030;-86
2021/04/26 10:22:43;;;;;;;12.13;4.78;;;;;;;;;;4866409;29;20460;-83
2021/04/26 10:25:10;;;;;;;7.68;3.70;;;;;;;;;;4903042;29;20064;-84
2021/04/26 10:27:40;;;;;;;7.45;4.22;;;;;;;;;;4924228;29;20115;-84
2021/04/26 10:30:08;;;;;;;12.27;5.30;;;;;;;;;;4924204;29;20450;-84
2021/04/26 10:32:53;;;;;;;10.73;4.50;;;;;;;;;;4907671;29;20036;-84
2021/04/26 10:35:19;;;;;;;7.90;3.85;;;;;;;;;;4907525;29;20055;-82
2021/04/26 10:37:46;;;;;;;9.07;3.53;;;;;;;;;;4923642;29;20032;-82
2021/04/26 10:40:14;;;;;;;12.32;3.60;;;;;;;;;;4923940;29;20360;-81
2021/04/26 10:42:43;;;;;;;5.45;3.17;;;;;;;;;;4907103;29;20056;-82
2021/04/26 10:45:12;;;;;;;6.00;3.35;;;;;;;;;;4923899;29;20028;-81
2021/04/26 10:47:42;;;;;;;7.55;3.50;;;;;;;;;;4923590;29;20031;-82
2021/04/26 10:50:08;;;;;;;8.43;4.05;;;;;;;;;;4923868;29;20020;-81
2021/04/26 10:52:38;;;;;;;8.18;3.60;;;;;;;;;;4923422;29;20039;-82
2021/04/26 10:55:09;;;;;;;7.43;3.58;;;;;;;;;;4923642;29;20304;-82
2021/04/26 10:57:37;;;;;;;6.38;3.75;;;;;;;;;;4906825;29;20028;-82
2021/04/26 11:02:52;;;;;;;7.20;4.05;;;;;;;;;;4923494;29;20025;-82
2021/04/26 11:05:31;;;;;;;8.48;4.00;;;;;;;;;;4923641;29;20032;-82
2021/04/26 11:10:27;;;;;;;7.25;3.60;;;;;;;;;;4923887;29;20036;-82
2021/04/26 11:12:54;;;;;;;6.70;3.60;;;;;;;;;;4923141;29;20028;-82
2021/04/26 11:15:22;;;;;;;5.13;3.67;;;;;;;;;;4922995;29;20035;-82
2021/04/26 11:17:48;;;;;;;7.57;3.95;;;;;;;;;;4923276;29;20036;-82
2021/04/26 11:20:24;;;;;;;8.73;3.95;;;;;;;;;;4923344;29;20108;-81
2021/04/26 11:22:53;;;;;;;6.10;3.58;;;;;;;;;;4904721;29;20047;-82
2021/04/26 11:25:37;;;;;;;7.40;3.63;;;;;;;;;;4933963;29;20038;-82
2021/04/26 11:28:04;;;;;;;7.20;4.18;;;;;;;;;;4925158;29;20126;-82
2021/04/26 11:30:34;;;;;;;6.05;3.45;;;;;;;;;;4942076;29;20358;-82
2021/04/26 11:33:02;;;;;;;6.95;3.80;;;;;;;;;;4942022;29;20028;-82
2021/04/26 11:35:28;;;;;;;6.63;3.50;;;;;;;;;;4942002;29;20035;-82
2021/04/26 11:37:54;;;;;;;5.40;3.42;;;;;;;;;;4941692;29;20027;-82
2021/04/26 11:40:20;;;;;;;7.75;4.20;;;;;;;;;;4941838;29;20023;-81
2021/04/26 11:42:47;;;;;;;4.20;2.90;;;;;;;;;;4941783;29;20039;-82
2021/04/26 11:45:13;;;;;;;5.90;4.10;;;;;;;;;;4924531;29;20446;-82
2021/04/26 11:47:40;;;;;;;9.60;4.00;;;;;;;;;;4941723;29;20034;-81
2021/04/26 11:50:07;;;;;;;6.35;4.03;;;;;;;;;;4941593;29;20032;-81
2021/04/26 11:52:35;;;;;;;5.00;3.70;;;;;;;;;;4941855;29;20035;-81
2021/04/26 11:55:04;;;;;;;6.88;3.35;;;;;;;;;;4941613;29;20036;-81
2021/04/26 11:57:51;;;;;;;10.63;4.72;;;;;;;;;;4941527;29;20355;-81
2021/04/26 12:00:22;;;;;;;7.43;3.63;;;;;;;;;;4941500;29;20115;-84
2021/04/26 12:02:50;;;;;;;7.75;3.72;;;;;;;;;;4941784;29;20042;-84
2021/04/26 12:05:20;;;;;;;6.18;3.78;;;;;;;;;;4924617;29;20032;-84
2021/04/26 12:07:46;;;;;;;15.60;10.27;;;;;;;;;;4941547;29;20028;-85
2021/04/26 12:10:14;;;;;;;7.05;4.57;;;;;;;;;;4924346;29;20091;-83
2021/04/26 12:12:40;;;;;;;10.60;6.60;;;;;;;;;;4908074;29;20477;-83
2021/04/26 12:15:09;;;;;;;9.65;5.18;;;;;;;;;;4908123;29;20039;-85
2021/04/26 12:17:36;;;;;;;13.25;10.13;;;;;;;;;;4941357;29;20023;-83
2021/04/26 12:20:10;;;;;;;12.57;8.07;;;;;;;;;;4924540;29;20027;-83
2021/04/26 12:22:36;;;;;;;17.08;10.20;;;;;;;;;;4941256;29;20098;-81
2021/04/26 12:25:06;;;;;;;7.28;3.90;;;;;;;;;;4924471;29;20052;-81
2021/04/26 12:27:33;;;;;;;8.07;4.25;;;;;;;;;;4941036;29;20193;-80
2021/04/26 12:30:12;;;;;;;5.30;3.70;;;;;;;;;;4940765;29;20323;-81
2021/04/26 12:32:38;;;;;;;8.75;3.78;;;;;;;;;;4940627;29;20019;-80
2021/04/26 12:35:05;;;;;;;10.25;6.28;;;;;;;;;;4931164;29;20427;-80
2021/04/26 12:37:33;;;;;;;12.02;6.18;;;;;;;;;;4904460;29;20068;-81
2021/04/26 12:40:11;;;;;;;9.43;5.72;;;;;;;;;;4921550;29;20029;-80
2021/04/26 12:42:38;;;;;;;9.70;4.93;;;;;;;;;;4921632;29;20047;-80
2021/04/26 12:45:14;;;;;;;9.77;5.57;;;;;;;;;;4921659;29;20036;-80
2021/04/26 12:47:51;;;;;;;8.20;5.10;;;;;;;;;;4921483;29;20031;-80
2021/04/26 12:50:25;;;;;;;8.05;4.18;;;;;;;;;;4921366;29;20029;-80
2021/04/26 12:53:11;;;;;;;12.23;5.03;;;;;;;;;;4904534;29;20052;-78
2021/04/26 12:55:39;;;;;;;7.20;4.72;;;;;;;;;;4939543;29;20363;-78
2021/04/26 12:58:08;;;;;;;9.73;3.97;;;;;;;;;;4940045;29;20032;-78
2021/04/26 13:00:51;;;;;;;8.25;3.53;;;;;;;;;;4940126;29;20039;-78
2021/04/26 13:03:20;;;;;;;9.80;3.70;;;;;;;;;;4922942;29;20127;-79
2021/04/26 13:05:47;;;;;;;7.30;3.55;;;;;;;;;;4939974;29;20091;-78
2021/04/26 13:08:14;;;;;;;6.28;3.70;;;;;;;;;;4923347;29;20473;-78
2021/04/26 13:10:40;;;;;;;7.75;3.83;;;;;;;;;;4940011;29;20058;-78
2021/04/26 13:13:06;;;;;;;4.75;3.97;;;;;;;;;;4922890;29;20043;-78
2021/04/26 13:15:33;;;;;;;7.30;3.80;;;;;;;;;;4923107;29;20355;-78
2021/04/26 13:18:12;;;;;;;8.20;3.55;;;;;;;;;;4939833;29;20032;-78
2021/04/26 13:20:38;;;;;;;9.70;5.07;;;;;;;;;;4939974;29;20091;-78
2021/04/26 13:23:14;;;;;;;14.18;5.43;;;;;;;;;;4939692;29;20051;-75
2021/04/26 13:25:40;;;;;;;7.50;5.18;;;;;;;;;;4940052;29;20106;-78
2021/04/26 13:28:07;;;;;;;8.77;4.55;;;;;;;;;;4939719;29;20078;-78
2021/04/26 13:30:33;;;;;;;8.25;4.50;;;;;;;;;;4939879;29;20114;-78
2021/04/26 13:32:59;;;;;;;6.30;4.00;;;;;;;;;;4939890;29;20024;-78
2021/04/26 13:35:25;;;;;;;18.67;8.68;;;;;;;;;;4939804;29;20142;-79
2021/04/26 13:37:51;;;;;;;14.93;6.25;;;;;;;;;;4939610;29;20314;-78
2021/04/26 13:40:17;;;;;;;8.05;4.78;;;;;;;;;;4939912;29;20079;-78
2021/04/26 13:42:43;;;;;;;6.63;3.38;;;;;;;;;;4939495;29;20035;-78
2021/04/26 13:45:10;;;;;;;8.95;4.97;;;;;;;;;;4939010;29;20482;-80
2021/04/26 13:47:36;;;;;;;7.90;3.88;;;;;;;;;;4939472;29;20036;-78
2021/04/26 13:50:02;;;;;;;8.25;4.45;;;;;;;;;;4922454;29;20043;-78
2021/04/26 13:52:28;;;;;;;6.72;3.88;;;;;;;;;;4939711;29;20411;-78
2021/04/26 13:54:55;;;;;;;6.60;3.38;;;;;;;;;;4939532;29;20043;-78
2021/04/26 13:57:21;;;;;;;5.38;3.58;;;;;;;;;;4939544;29;20042;-78
2021/04/26 13:59:47;;;;;;;12.73;5.35;;;;;;;;;;4940629;29;20024;-77
2021/04/26 14:02:13;;;;;;;7.07;3.83;;;;;;;;;;4941108;29;20334;-77
2021/04/26 14:04:39;;;;;;;7.53;3.95;;;;;;;;;;4958390;28;20023;-78
2021/04/26 14:07:05;;;;;;;14.05;4.50;;;;;;;;;;4941677;29;20023;-78
2021/04/26 14:09:31;;;;;;;7.68;3.50;;;;;;;;;;4941549;29;20029;-78
2021/04/26 14:11:57;;;;;;;8.45;3.97;;;;;;;;;;4958566;29;20028;-78
2021/04/26 14:14:23;;;;;;;15.32;4.55;;;;;;;;;;4941235;29;20034;-78
2021/04/26 14:16:49;;;;;;;8.90;4.97;;;;;;;;;;4941078;29;20418;-78
2021/04/26 14:19:16;;;;;;;10.90;4.90;;;;;;;;;;4941396;29;20303;-78
2021/04/26 14:21:42;;;;;;;9.25;5.13;;;;;;;;;;4941135;29;20042;-78
2021/04/26 14:24:08;;;;;;;7.88;5.18;;;;;;;;;;4958372;29;20372;-78
2021/04/26 14:26:34;;;;;;;19.42;8.13;;;;;;;;;;4958676;29;20023;-78
2021/04/26 14:29:00;;;;;;;13.77;4.75;;;;;;;;;;4941246;29;20020;-78
2021/04/26 14:31:26;;;;;;;13.38;5.15;;;;;;;;;;4958543;29;20039;-78
2021/04/26 14:33:52;;;;;;;9.15;5.80;;;;;;;;;;4957976;28;20020;-78
2021/04/26 14:36:18;;;;;;;8.52;6.22;;;;;;;;;;4958438;29;20102;-78
2021/04/26 14:38:45;;;;;;;10.98;5.65;;;;;;;;;;4958264;29;20035;-78
2021/04/26 14:41:11;;;;;;;6.88;4.80;;;;;;;;;;4958283;29;20024;-78
2021/04/26 14:43:37;;;;;;;8.20;4.20;;;;;;;;;;4958472;29;20497;-78
2021/04/26 14:46:04;;;;;;;10.70;5.07;;;;;;;;;;4940922;29;20035;-78
2021/04/26 14:48:30;;;;;;;9.98;6.03;;;;;;;;;;4941221;29;20066;-78
2021/04/26 14:50:56;;;;;;;7.93;4.57;;;;;;;;;;4958267;29;20031;-78
2021/04/26 14:53:22;;;;;;;9.63;4.47;;;;;;;;;;4940974;29;20066;-78
2021/04/26 14:55:48;;;;;;;11.45;5.25;;;;;;;;;;4958458;29;20039;-78
2021/04/26 14:58:14;;;;;;;10.25;6.88;;;;;;;;;;4943940;29;20051;-78
2021/04/26 15:00:40;;;;;;;13.70;8.23;;;;;;;;;;4961366;28;20118;-78
2021/04/26 15:03:06;;;;;;;9.35;4.82;;;;;;;;;;4942322;29;20035;-78
2021/04/26 15:05:34;;;;;;;7.43;4.20;;;;;;;;;;4926471;29;20020;-78
2021/04/26 15:08:00;;;;;;;7.95;3.95;;;;;;;;;;4923256;29;20028;-78